sensor_id;sensor_type;location;lat;lon;timestamp;temperature;humidity
27633;DHT22;15046;50.930;13.334;2022-10-28T00:00:22;14.60;99.90
27633;DHT22;15046;50.930;13.334;2022-10-28T00:02:48;14.50;99.90
27633;DHT22;15046;50.930;13.334;2022-10-28T00:05:14;14.50;99.90
27633;DHT22;15046;50.930;13.334;2022-10-28T00:07:40;14.50;99.90
27633;DHT22;15046;50.930;13.334;2022-10-28T00:10:06;14.60;99.90
27633;DHT22;15046;50.930;13.334;2022-10-28T00:12:36;14.70;99.90
27633;DHT22;15046;50.930;13.334;2022-10-28T00:15:03;14.80;99.90
27633;DHT22;15046;50.930;13.334;2022-10-28T00:17:29;14.90;99.90
27633;DHT22;15046;50.930;13.334;2022-10-28T00:19:55;15.00;99.90
27633;DHT22;15046;50.930;13.334;2022-10-28T00:22:21;15.10;99.90
27633;DHT22;15046;50.930;13.334;2022-10-28T00:24:47;15.20;99.90
27633;DHT22;15046;50.930;13.334;2022-10-28T00:27:12;15.20;99.90
27633;DHT22;15046;50.930;13.334;2022-10-28T00:29:38;15.30;99.90
27633;DHT22;15046;50.930;13.334;2022-10-28T00:32:04;15.40;99.90
27633;DHT22;15046;50.930;13.334;2022-10-28T00:34:30;15.40;99.90
27633;DHT22;15046;50.930;13.334;2022-10-28T00:36:56;15.40;99.90
27633;DHT22;15046;50.930;13.334;2022-10-28T00:39:24;15.50;99.90
27633;DHT22;15046;50.930;13.334;2022-10-28T00:41:55;15.50;99.90
27633;DHT22;15046;50.930;13.334;2022-10-28T00:44:59;15.60;99.90
27633;DHT22;15046;50.930;13.334;2022-10-28T00:47:44;15.70;99.90
27633;DHT22;15046;50.930;13.334;2022-10-28T00:50:36;15.70;99.90
27633;DHT22;15046;50.930;13.334;2022-10-28T00:53:10;15.60;99.90
27633;DHT22;15046;50.930;13.334;2022-10-28T00:55:39;15.60;99.90
27633;DHT22;15046;50.930;13.334;2022-10-28T00:58:05;15.60;99.90
27633;DHT22;15046;50.930;13.334;2022-10-28T01:00:33;15.60;99.90
27633;DHT22;15046;50.930;13.334;2022-10-28T01:02:59;15.60;99.90
27633;DHT22;15046;50.930;13.334;2022-10-28T01:05:28;15.60;99.90
27633;DHT22;15046;50.930;13.334;2022-10-28T01:08:00;15.60;99.90
27633;DHT22;15046;50.930;13.334;2022-10-28T01:13:30;15.60;99.90
27633;DHT22;15046;50.930;13.334;2022-10-28T01:16:06;15.50;99.90
27633;DHT22;15046;50.930;13.334;2022-10-28T01:18:47;15.50;99.90
27633;DHT22;15046;50.930;13.334;2022-10-28T01:24:20;15.50;99.90
27633;DHT22;15046;50.930;13.334;2022-10-28T01:35:24;15.50;99.90
27633;DHT22;15046;50.930;13.334;2022-10-28T01:38:14;15.40;99.90
27633;DHT22;15046;50.930;13.334;2022-10-28T01:46:20;15.20;99.90
27633;DHT22;15046;50.930;13.334;2022-10-28T01:51:46;15.10;99.90
27633;DHT22;15046;50.930;13.334;2022-10-28T01:54:21;15.00;99.90
27633;DHT22;15046;50.930;13.334;2022-10-28T01:56:49;15.00;99.90
27633;DHT22;15046;50.930;13.334;2022-10-28T01:59:23;15.00;99.90
27633;DHT22;15046;50.930;13.334;2022-10-28T02:01:51;15.00;99.90
27633;DHT22;15046;50.930;13.334;2022-10-28T02:04:16;15.00;99.90
27633;DHT22;15046;50.930;13.334;2022-10-28T02:06:46;15.00;99.90
27633;DHT22;15046;50.930;13.334;2022-10-28T02:09:21;15.00;99.90
27633;DHT22;15046;50.930;13.334;2022-10-28T02:17:53;15.00;99.90
27633;DHT22;15046;50.930;13.334;2022-10-28T02:26:19;14.90;99.90
27633;DHT22;15046;50.930;13.334;2022-10-28T02:28:49;15.00;99.90
27633;DHT22;15046;50.930;13.334;2022-10-28T02:31:27;15.00;99.90
27633;DHT22;15046;50.930;13.334;2022-10-28T02:33:59;15.00;99.90
27633;DHT22;15046;50.930;13.334;2022-10-28T02:36:28;14.90;99.90
27633;DHT22;15046;50.930;13.334;2022-10-28T02:38:57;14.90;99.90
27633;DHT22;15046;50.930;13.334;2022-10-28T02:41:39;14.90;99.90
27633;DHT22;15046;50.930;13.334;2022-10-28T02:44:11;14.80;99.90
27633;DHT22;15046;50.930;13.334;2022-10-28T02:46:41;14.80;99.90
27633;DHT22;15046;50.930;13.334;2022-10-28T02:49:10;14.80;99.90
27633;DHT22;15046;50.930;13.334;2022-10-28T02:51:50;14.70;99.90
27633;DHT22;15046;50.930;13.334;2022-10-28T02:54:21;14.70;99.90
27633;DHT22;15046;50.930;13.334;2022-10-28T02:59:14;14.60;99.90
27633;DHT22;15046;50.930;13.334;2022-10-28T03:01:40;14.50;99.90
27633;DHT22;15046;50.930;13.334;2022-10-28T03:04:06;14.50;99.90
27633;DHT22;15046;50.930;13.334;2022-10-28T03:06:32;14.40;99.90
27633;DHT22;15046;50.930;13.334;2022-10-28T03:08:58;14.40;99.90
27633;DHT22;15046;50.930;13.334;2022-10-28T03:11:23;14.30;99.90
27633;DHT22;15046;50.930;13.334;2022-10-28T03:13:49;14.20;99.90
27633;DHT22;15046;50.930;13.334;2022-10-28T03:16:15;14.20;99.90
27633;DHT22;15046;50.930;13.334;2022-10-28T03:18:41;14.30;99.90
27633;DHT22;15046;50.930;13.334;2022-10-28T03:21:07;14.30;99.90
27633;DHT22;15046;50.930;13.334;2022-10-28T03:23:33;14.40;99.90
27633;DHT22;15046;50.930;13.334;2022-10-28T03:25:59;14.50;99.90
27633;DHT22;15046;50.930;13.334;2022-10-28T03:28:24;14.60;99.90
27633;DHT22;15046;50.930;13.334;2022-10-28T03:30:50;14.70;99.90
27633;DHT22;15046;50.930;13.334;2022-10-28T03:33:16;14.90;99.90
27633;DHT22;15046;50.930;13.334;2022-10-28T03:35:43;15.00;99.90
27633;DHT22;15046;50.930;13.334;2022-10-28T03:38:08;15.10;99.90
27633;DHT22;15046;50.930;13.334;2022-10-28T03:40:34;15.20;99.90
27633;DHT22;15046;50.930;13.334;2022-10-28T03:43:00;15.30;99.90
27633;DHT22;15046;50.930;13.334;2022-10-28T03:45:26;15.50;99.90
27633;DHT22;15046;50.930;13.334;2022-10-28T03:47:52;15.60;99.90
27633;DHT22;15046;50.930;13.334;2022-10-28T03:50:18;15.70;99.90
27633;DHT22;15046;50.930;13.334;2022-10-28T03:52:43;15.80;99.90
27633;DHT22;15046;50.930;13.334;2022-10-28T03:55:09;15.90;99.90
27633;DHT22;15046;50.930;13.334;2022-10-28T03:57:35;16.00;99.90
27633;DHT22;15046;50.930;13.334;2022-10-28T04:00:02;16.00;99.80
27633;DHT22;15046;50.930;13.334;2022-10-28T04:02:28;16.00;99.60
27633;DHT22;15046;50.930;13.334;2022-10-28T04:04:54;16.00;99.40
27633;DHT22;15046;50.930;13.334;2022-10-28T04:07:20;16.10;99.30
27633;DHT22;15046;50.930;13.334;2022-10-28T04:09:45;16.00;99.20
27633;DHT22;15046;50.930;13.334;2022-10-28T04:12:14;16.00;99.10
27633;DHT22;15046;50.930;13.334;2022-10-28T04:14:40;16.00;98.90
27633;DHT22;15046;50.930;13.334;2022-10-28T04:17:05;16.00;99.00
27633;DHT22;15046;50.930;13.334;2022-10-28T04:19:31;15.90;99.00
27633;DHT22;15046;50.930;13.334;2022-10-28T04:21:57;15.90;99.10
27633;DHT22;15046;50.930;13.334;2022-10-28T04:24:23;15.80;99.10
27633;DHT22;15046;50.930;13.334;2022-10-28T04:26:49;15.70;99.20
27633;DHT22;15046;50.930;13.334;2022-10-28T04:29:17;15.70;99.20
27633;DHT22;15046;50.930;13.334;2022-10-28T04:31:44;15.60;99.20
27633;DHT22;15046;50.930;13.334;2022-10-28T04:34:12;15.60;99.10
27633;DHT22;15046;50.930;13.334;2022-10-28T04:36:38;15.50;99.00
27633;DHT22;15046;50.930;13.334;2022-10-28T04:39:08;15.50;99.00
27633;DHT22;15046;50.930;13.334;2022-10-28T04:41:33;15.50;99.00
27633;DHT22;15046;50.930;13.334;2022-10-28T04:44:03;15.40;99.00
27633;DHT22;15046;50.930;13.334;2022-10-28T04:46:43;15.40;99.10
27633;DHT22;15046;50.930;13.334;2022-10-28T04:49:08;15.30;99.20
27633;DHT22;15046;50.930;13.334;2022-10-28T04:51:34;15.30;99.20
27633;DHT22;15046;50.930;13.334;2022-10-28T04:54:00;15.20;99.30
27633;DHT22;15046;50.930;13.334;2022-10-28T04:56:26;15.10;99.50
27633;DHT22;15046;50.930;13.334;2022-10-28T04:58:52;15.10;99.70
27633;DHT22;15046;50.930;13.334;2022-10-28T05:01:18;15.00;99.70
27633;DHT22;15046;50.930;13.334;2022-10-28T05:03:44;15.00;99.90
27633;DHT22;15046;50.930;13.334;2022-10-28T05:06:10;15.00;99.90
27633;DHT22;15046;50.930;13.334;2022-10-28T05:08:35;14.90;99.90
27633;DHT22;15046;50.930;13.334;2022-10-28T05:11:01;14.90;99.90
27633;DHT22;15046;50.930;13.334;2022-10-28T05:13:27;14.90;99.90
27633;DHT22;15046;50.930;13.334;2022-10-28T05:15:53;14.90;99.90
27633;DHT22;15046;50.930;13.334;2022-10-28T05:18:18;14.90;99.90
27633;DHT22;15046;50.930;13.334;2022-10-28T05:20:44;14.90;99.90
27633;DHT22;15046;50.930;13.334;2022-10-28T05:23:10;14.90;99.90
27633;DHT22;15046;50.930;13.334;2022-10-28T05:25:36;14.90;99.90
27633;DHT22;15046;50.930;13.334;2022-10-28T05:28:02;14.90;99.90
27633;DHT22;15046;50.930;13.334;2022-10-28T05:30:27;14.90;99.90
27633;DHT22;15046;50.930;13.334;2022-10-28T05:33:00;15.00;99.90
27633;DHT22;15046;50.930;13.334;2022-10-28T05:35:27;15.10;99.90
27633;DHT22;15046;50.930;13.334;2022-10-28T05:37:53;15.20;99.90
27633;DHT22;15046;50.930;13.334;2022-10-28T05:40:19;15.30;99.90
27633;DHT22;15046;50.930;13.334;2022-10-28T05:42:45;15.40;99.90
27633;DHT22;15046;50.930;13.334;2022-10-28T05:45:11;15.50;99.90
27633;DHT22;15046;50.930;13.334;2022-10-28T05:47:44;15.60;99.90
27633;DHT22;15046;50.930;13.334;2022-10-28T05:50:11;15.60;99.90
27633;DHT22;15046;50.930;13.334;2022-10-28T05:52:38;15.70;99.90
27633;DHT22;15046;50.930;13.334;2022-10-28T05:55:04;15.70;99.80
27633;DHT22;15046;50.930;13.334;2022-10-28T05:57:33;15.70;99.80
27633;DHT22;15046;50.930;13.334;2022-10-28T06:00:00;15.80;99.80
27633;DHT22;15046;50.930;13.334;2022-10-28T06:02:26;15.80;99.70
27633;DHT22;15046;50.930;13.334;2022-10-28T06:04:52;15.90;99.70
27633;DHT22;15046;50.930;13.334;2022-10-28T06:07:17;16.00;99.60
27633;DHT22;15046;50.930;13.334;2022-10-28T06:09:43;16.00;99.50
27633;DHT22;15046;50.930;13.334;2022-10-28T06:12:09;16.00;99.40
27633;DHT22;15046;50.930;13.334;2022-10-28T06:14:35;16.10;99.40
27633;DHT22;15046;50.930;13.334;2022-10-28T06:17:00;16.10;99.30
27633;DHT22;15046;50.930;13.334;2022-10-28T06:19:26;16.10;99.30
27633;DHT22;15046;50.930;13.334;2022-10-28T06:21:52;16.20;99.20
27633;DHT22;15046;50.930;13.334;2022-10-28T06:24:18;16.30;99.20
27633;DHT22;15046;50.930;13.334;2022-10-28T06:26:43;16.30;99.10
27633;DHT22;15046;50.930;13.334;2022-10-28T06:29:10;16.40;99.10
27633;DHT22;15046;50.930;13.334;2022-10-28T06:31:38;16.40;99.00
27633;DHT22;15046;50.930;13.334;2022-10-28T06:34:04;16.40;98.90
27633;DHT22;15046;50.930;13.334;2022-10-28T06:36:30;16.50;98.90
27633;DHT22;15046;50.930;13.334;2022-10-28T06:38:56;16.60;98.80
27633;DHT22;15046;50.930;13.334;2022-10-28T06:41:22;16.60;98.70
27633;DHT22;15046;50.930;13.334;2022-10-28T06:43:47;16.70;98.70
27633;DHT22;15046;50.930;13.334;2022-10-28T06:46:13;16.80;98.60
27633;DHT22;15046;50.930;13.334;2022-10-28T06:48:39;16.80;98.50
27633;DHT22;15046;50.930;13.334;2022-10-28T06:51:05;16.90;98.50
27633;DHT22;15046;50.930;13.334;2022-10-28T06:53:30;16.80;98.40
27633;DHT22;15046;50.930;13.334;2022-10-28T06:55:57;16.90;98.40
27633;DHT22;15046;50.930;13.334;2022-10-28T06:58:24;17.00;98.30
27633;DHT22;15046;50.930;13.334;2022-10-28T07:00:50;17.10;98.20
27633;DHT22;15046;50.930;13.334;2022-10-28T07:03:16;17.20;98.20
27633;DHT22;15046;50.930;13.334;2022-10-28T07:05:44;17.20;98.10
27633;DHT22;15046;50.930;13.334;2022-10-28T07:08:10;17.30;97.90
27633;DHT22;15046;50.930;13.334;2022-10-28T07:10:36;17.40;97.80
27633;DHT22;15046;50.930;13.334;2022-10-28T07:13:02;17.50;97.60
27633;DHT22;15046;50.930;13.334;2022-10-28T07:15:28;17.60;97.50
27633;DHT22;15046;50.930;13.334;2022-10-28T07:17:55;17.60;97.40
27633;DHT22;15046;50.930;13.334;2022-10-28T07:20:22;17.70;97.30
27633;DHT22;15046;50.930;13.334;2022-10-28T07:22:55;17.80;97.20
27633;DHT22;15046;50.930;13.334;2022-10-28T07:25:21;17.90;97.00
27633;DHT22;15046;50.930;13.334;2022-10-28T07:27:47;18.00;96.90
27633;DHT22;15046;50.930;13.334;2022-10-28T07:30:13;18.10;96.80
27633;DHT22;15046;50.930;13.334;2022-10-28T07:32:38;18.30;97.00
27633;DHT22;15046;50.930;13.334;2022-10-28T07:35:05;18.30;96.60
27633;DHT22;15046;50.930;13.334;2022-10-28T07:37:30;18.40;96.40
27633;DHT22;15046;50.930;13.334;2022-10-28T07:39:56;18.40;96.30
27633;DHT22;15046;50.930;13.334;2022-10-28T07:42:22;18.40;96.10
27633;DHT22;15046;50.930;13.334;2022-10-28T07:44:48;18.60;95.90
27633;DHT22;15046;50.930;13.334;2022-10-28T07:47:14;18.60;95.70
27633;DHT22;15046;50.930;13.334;2022-10-28T07:49:41;18.70;95.60
27633;DHT22;15046;50.930;13.334;2022-10-28T07:52:07;18.80;95.50
27633;DHT22;15046;50.930;13.334;2022-10-28T07:54:33;18.80;95.30
27633;DHT22;15046;50.930;13.334;2022-10-28T07:56:59;18.90;95.10
27633;DHT22;15046;50.930;13.334;2022-10-28T07:59:25;19.10;94.90
27633;DHT22;15046;50.930;13.334;2022-10-28T08:01:50;19.20;94.60
27633;DHT22;15046;50.930;13.334;2022-10-28T08:04:16;19.40;94.40
27633;DHT22;15046;50.930;13.334;2022-10-28T08:06:42;19.50;94.20
27633;DHT22;15046;50.930;13.334;2022-10-28T08:09:08;19.60;94.00
27633;DHT22;15046;50.930;13.334;2022-10-28T08:11:34;19.80;93.90
27633;DHT22;15046;50.930;13.334;2022-10-28T08:14:01;19.90;93.70
27633;DHT22;15046;50.930;13.334;2022-10-28T08:16:27;20.00;93.40
27633;DHT22;15046;50.930;13.334;2022-10-28T08:18:54;20.10;93.20
27633;DHT22;15046;50.930;13.334;2022-10-28T08:21:21;20.10;92.90
27633;DHT22;15046;50.930;13.334;2022-10-28T08:23:48;20.20;92.80
27633;DHT22;15046;50.930;13.334;2022-10-28T08:26:16;20.20;92.70
27633;DHT22;15046;50.930;13.334;2022-10-28T08:28:43;20.30;92.40
27633;DHT22;15046;50.930;13.334;2022-10-28T08:31:09;20.30;92.30
27633;DHT22;15046;50.930;13.334;2022-10-28T08:33:41;20.50;91.90
27633;DHT22;15046;50.930;13.334;2022-10-28T08:36:14;20.70;91.60
27633;DHT22;15046;50.930;13.334;2022-10-28T08:38:42;20.80;91.50
27633;DHT22;15046;50.930;13.334;2022-10-28T08:49:30;21.40;90.40
27633;DHT22;15046;50.930;13.334;2022-10-28T08:52:02;21.60;90.00
27633;DHT22;15046;50.930;13.334;2022-10-28T08:54:43;21.80;89.50
27633;DHT22;15046;50.930;13.334;2022-10-28T08:57:21;21.90;88.60
27633;DHT22;15046;50.930;13.334;2022-10-28T08:59:51;21.90;88.10
27633;DHT22;15046;50.930;13.334;2022-10-28T09:02:23;22.00;87.90
27633;DHT22;15046;50.930;13.334;2022-10-28T09:05:05;22.00;87.50
27633;DHT22;15046;50.930;13.334;2022-10-28T09:07:33;22.20;87.10
27633;DHT22;15046;50.930;13.334;2022-10-28T09:10:00;22.30;86.20
27633;DHT22;15046;50.930;13.334;2022-10-28T09:15:27;22.50;85.20
27633;DHT22;15046;50.930;13.334;2022-10-28T09:18:08;22.50;84.80
27633;DHT22;15046;50.930;13.334;2022-10-28T09:20:49;22.70;83.90
27633;DHT22;15046;50.930;13.334;2022-10-28T09:23:23;22.70;82.90
27633;DHT22;15046;50.930;13.334;2022-10-28T09:33:58;22.70;81.80
27633;DHT22;15046;50.930;13.334;2022-10-28T09:36:33;23.10;81.20
27633;DHT22;15046;50.930;13.334;2022-10-28T09:39:00;23.30;80.70
27633;DHT22;15046;50.930;13.334;2022-10-28T09:41:38;23.70;80.20
27633;DHT22;15046;50.930;13.334;2022-10-28T09:46:58;23.70;79.50
27633;DHT22;15046;50.930;13.334;2022-10-28T09:49:27;23.40;79.70
27633;DHT22;15046;50.930;13.334;2022-10-28T09:54:43;23.00;81.00
27633;DHT22;15046;50.930;13.334;2022-10-28T09:57:10;22.80;81.10
27633;DHT22;15046;50.930;13.334;2022-10-28T09:59:36;23.30;81.30
27633;DHT22;15046;50.930;13.334;2022-10-28T10:02:03;24.30;79.70
27633;DHT22;15046;50.930;13.334;2022-10-28T10:04:30;25.00;77.70
27633;DHT22;15046;50.930;13.334;2022-10-28T10:07:07;24.90;77.10
27633;DHT22;15046;50.930;13.334;2022-10-28T10:09:36;24.50;77.40
27633;DHT22;15046;50.930;13.334;2022-10-28T10:12:08;24.10;78.00
27633;DHT22;15046;50.930;13.334;2022-10-28T10:14:55;23.90;78.20
27633;DHT22;15046;50.930;13.334;2022-10-28T10:17:30;23.80;78.70
27633;DHT22;15046;50.930;13.334;2022-10-28T10:20:04;23.70;78.70
27633;DHT22;15046;50.930;13.334;2022-10-28T10:22:31;23.50;78.80
27633;DHT22;15046;50.930;13.334;2022-10-28T10:24:57;23.30;79.20
27633;DHT22;15046;50.930;13.334;2022-10-28T10:27:25;23.10;79.70
27633;DHT22;15046;50.930;13.334;2022-10-28T10:29:52;22.90;79.70
27633;DHT22;15046;50.930;13.334;2022-10-28T10:32:22;22.80;80.10
27633;DHT22;15046;50.930;13.334;2022-10-28T10:34:58;22.80;80.00
27633;DHT22;15046;50.930;13.334;2022-10-28T10:37:27;22.80;80.00
27633;DHT22;15046;50.930;13.334;2022-10-28T10:42:45;22.80;79.80
27633;DHT22;15046;50.930;13.334;2022-10-28T10:45:21;22.90;79.30
27633;DHT22;15046;50.930;13.334;2022-10-28T10:47:47;23.10;79.00
27633;DHT22;15046;50.930;13.334;2022-10-28T10:50:26;23.20;78.80
27633;DHT22;15046;50.930;13.334;2022-10-28T10:52:55;23.60;78.70
27633;DHT22;15046;50.930;13.334;2022-10-28T10:55:34;24.00;77.50
27633;DHT22;15046;50.930;13.334;2022-10-28T10:58:01;25.00;77.00
27633;DHT22;15046;50.930;13.334;2022-10-28T11:00:31;25.80;74.60
27633;DHT22;15046;50.930;13.334;2022-10-28T11:02:58;26.00;73.40
27633;DHT22;15046;50.930;13.334;2022-10-28T11:05:24;25.90;73.30
27633;DHT22;15046;50.930;13.334;2022-10-28T11:07:51;26.50;72.50
27633;DHT22;15046;50.930;13.334;2022-10-28T11:12:53;26.90;70.60
27633;DHT22;15046;50.930;13.334;2022-10-28T11:15:25;27.30;69.70
27633;DHT22;15046;50.930;13.334;2022-10-28T11:20:48;29.00;67.10
27633;DHT22;15046;50.930;13.334;2022-10-28T11:25:49;28.60;65.20
27633;DHT22;15046;50.930;13.334;2022-10-28T11:31:34;27.60;66.20
27633;DHT22;15046;50.930;13.334;2022-10-28T11:50:58;30.70;58.10
27633;DHT22;15046;50.930;13.334;2022-10-28T11:59:02;28.00;60.40
27633;DHT22;15046;50.930;13.334;2022-10-28T12:15:58;28.10;59.80
27633;DHT22;15046;50.930;13.334;2022-10-28T12:18:34;27.60;60.50
27633;DHT22;15046;50.930;13.334;2022-10-28T12:21:16;28.30;60.40
27633;DHT22;15046;50.930;13.334;2022-10-28T12:23:45;29.40;59.00
27633;DHT22;15046;50.930;13.334;2022-10-28T12:26:15;29.40;58.20
27633;DHT22;15046;50.930;13.334;2022-10-28T12:28:45;29.30;58.40
27633;DHT22;15046;50.930;13.334;2022-10-28T12:31:23;30.00;57.90
27633;DHT22;15046;50.930;13.334;2022-10-28T12:33:56;30.00;57.20
27633;DHT22;15046;50.930;13.334;2022-10-28T12:39:12;30.20;57.30
27633;DHT22;15046;50.930;13.334;2022-10-28T12:41:50;31.60;55.80
27633;DHT22;15046;50.930;13.334;2022-10-28T12:44:22;31.90;55.60
27633;DHT22;15046;50.930;13.334;2022-10-28T12:49:35;31.30;55.30
27633;DHT22;15046;50.930;13.334;2022-10-28T12:52:37;30.80;55.70
27633;DHT22;15046;50.930;13.334;2022-10-28T12:55:29;30.50;56.20
27633;DHT22;15046;50.930;13.334;2022-10-28T12:58:03;31.60;55.30
27633;DHT22;15046;50.930;13.334;2022-10-28T13:00:41;33.10;54.30
27633;DHT22;15046;50.930;13.334;2022-10-28T13:03:12;34.30;53.20
27633;DHT22;15046;50.930;13.334;2022-10-28T13:05:56;34.60;51.90
27633;DHT22;15046;50.930;13.334;2022-10-28T13:14:13;30.50;54.20
27633;DHT22;15046;50.930;13.334;2022-10-28T13:17:08;29.90;55.40
27633;DHT22;15046;50.930;13.334;2022-10-28T13:20:14;31.00;54.80
27633;DHT22;15046;50.930;13.334;2022-10-28T13:25:24;33.40;52.30
27633;DHT22;15046;50.930;13.334;2022-10-28T13:27:56;34.10;51.40
27633;DHT22;15046;50.930;13.334;2022-10-28T13:30:22;34.40;50.90
27633;DHT22;15046;50.930;13.334;2022-10-28T13:33:08;34.70;50.10
27633;DHT22;15046;50.930;13.334;2022-10-28T13:35:35;34.60;49.90
27633;DHT22;15046;50.930;13.334;2022-10-28T13:38:07;34.60;49.60
27633;DHT22;15046;50.930;13.334;2022-10-28T13:43:01;34.00;50.40
27633;DHT22;15046;50.930;13.334;2022-10-28T13:46:02;33.80;50.10
27633;DHT22;15046;50.930;13.334;2022-10-28T13:56:37;29.90;52.00
27633;DHT22;15046;50.930;13.334;2022-10-28T13:59:21;29.00;53.00
27633;DHT22;15046;50.930;13.334;2022-10-28T14:04:21;27.80;54.60
27633;DHT22;15046;50.930;13.334;2022-10-28T14:06:47;27.40;55.20
27633;DHT22;15046;50.930;13.334;2022-10-28T14:09:30;27.10;55.70
27633;DHT22;15046;50.930;13.334;2022-10-28T14:14:32;26.50;56.40
27633;DHT22;15046;50.930;13.334;2022-10-28T14:16:58;26.20;57.00
27633;DHT22;15046;50.930;13.334;2022-10-28T14:19:23;25.90;57.40
27633;DHT22;15046;50.930;13.334;2022-10-28T14:21:50;25.60;57.40
27633;DHT22;15046;50.930;13.334;2022-10-28T14:24:50;25.40;57.60
27633;DHT22;15046;50.930;13.334;2022-10-28T14:27:26;25.20;57.80
27633;DHT22;15046;50.930;13.334;2022-10-28T14:35:02;25.20;58.60
27633;DHT22;15046;50.930;13.334;2022-10-28T14:40:32;25.10;58.80
27633;DHT22;15046;50.930;13.334;2022-10-28T14:43:06;25.00;59.00
27633;DHT22;15046;50.930;13.334;2022-10-28T14:45:42;24.80;59.40
27633;DHT22;15046;50.930;13.334;2022-10-28T14:50:46;24.50;60.00
27633;DHT22;15046;50.930;13.334;2022-10-28T14:53:29;24.40;60.50
27633;DHT22;15046;50.930;13.334;2022-10-28T14:56:08;24.30;60.80
27633;DHT22;15046;50.930;13.334;2022-10-28T14:58:36;24.20;60.90
27633;DHT22;15046;50.930;13.334;2022-10-28T15:03:49;24.00;61.30
27633;DHT22;15046;50.930;13.334;2022-10-28T15:06:31;23.90;61.30
27633;DHT22;15046;50.930;13.334;2022-10-28T15:09:20;23.80;61.50
27633;DHT22;15046;50.930;13.334;2022-10-28T15:11:53;23.70;61.60
27633;DHT22;15046;50.930;13.334;2022-10-28T15:14:33;23.60;61.70
27633;DHT22;15046;50.930;13.334;2022-10-28T15:17:13;23.60;61.90
27633;DHT22;15046;50.930;13.334;2022-10-28T15:19:39;23.60;62.00
27633;DHT22;15046;50.930;13.334;2022-10-28T15:25:01;23.40;62.10
27633;DHT22;15046;50.930;13.334;2022-10-28T15:27:35;23.40;62.10
27633;DHT22;15046;50.930;13.334;2022-10-28T15:30:04;23.30;62.40
27633;DHT22;15046;50.930;13.334;2022-10-28T15:32:37;23.20;62.40
27633;DHT22;15046;50.930;13.334;2022-10-28T15:35:23;23.20;62.60
27633;DHT22;15046;50.930;13.334;2022-10-28T15:37:51;23.10;63.00
27633;DHT22;15046;50.930;13.334;2022-10-28T15:45:27;22.90;62.80
27633;DHT22;15046;50.930;13.334;2022-10-28T15:47:54;22.80;63.00
27633;DHT22;15046;50.930;13.334;2022-10-28T15:53:18;22.70;62.90
27633;DHT22;15046;50.930;13.334;2022-10-28T15:55:42;22.70;63.00
27633;DHT22;15046;50.930;13.334;2022-10-28T16:00:52;22.70;63.00
27633;DHT22;15046;50.930;13.334;2022-10-28T16:03:26;22.60;62.90
27633;DHT22;15046;50.930;13.334;2022-10-28T16:05:57;22.60;63.00
27633;DHT22;15046;50.930;13.334;2022-10-28T16:08:25;22.60;62.90
27633;DHT22;15046;50.930;13.334;2022-10-28T16:13:31;22.50;62.80
27633;DHT22;15046;50.930;13.334;2022-10-28T16:16:09;22.50;62.90
27633;DHT22;15046;50.930;13.334;2022-10-28T16:18:49;22.40;63.00
27633;DHT22;15046;50.930;13.334;2022-10-28T16:21:20;22.40;63.00
27633;DHT22;15046;50.930;13.334;2022-10-28T16:23:48;22.30;62.90
27633;DHT22;15046;50.930;13.334;2022-10-28T16:26:19;22.30;63.00
27633;DHT22;15046;50.930;13.334;2022-10-28T16:28:45;22.30;63.00
27633;DHT22;15046;50.930;13.334;2022-10-28T16:31:14;22.30;63.00
27633;DHT22;15046;50.930;13.334;2022-10-28T16:33:41;22.20;62.90
27633;DHT22;15046;50.930;13.334;2022-10-28T16:36:07;22.20;63.00
27633;DHT22;15046;50.930;13.334;2022-10-28T16:38:33;22.20;63.70
27633;DHT22;15046;50.930;13.334;2022-10-28T16:41:00;22.20;62.90
27633;DHT22;15046;50.930;13.334;2022-10-28T16:43:28;22.10;62.70
27633;DHT22;15046;50.930;13.334;2022-10-28T16:45:56;22.10;62.50
27633;DHT22;15046;50.930;13.334;2022-10-28T16:48:24;22.10;62.50
27633;DHT22;15046;50.930;13.334;2022-10-28T16:50:57;22.10;62.50
27633;DHT22;15046;50.930;13.334;2022-10-28T16:53:23;22.10;62.50
27633;DHT22;15046;50.930;13.334;2022-10-28T16:55:50;22.00;62.50
27633;DHT22;15046;50.930;13.334;2022-10-28T16:58:16;22.00;62.30
27633;DHT22;15046;50.930;13.334;2022-10-28T17:00:42;22.00;62.20
27633;DHT22;15046;50.930;13.334;2022-10-28T17:03:14;22.00;62.00
27633;DHT22;15046;50.930;13.334;2022-10-28T17:05:40;22.00;62.00
27633;DHT22;15046;50.930;13.334;2022-10-28T17:08:11;22.00;61.90
27633;DHT22;15046;50.930;13.334;2022-10-28T17:10:38;21.90;61.80
27633;DHT22;15046;50.930;13.334;2022-10-28T17:13:15;21.80;62.00
27633;DHT22;15046;50.930;13.334;2022-10-28T17:15:41;21.80;62.10
27633;DHT22;15046;50.930;13.334;2022-10-28T17:18:12;21.70;62.10
27633;DHT22;15046;50.930;13.334;2022-10-28T17:20:40;21.60;62.30
27633;DHT22;15046;50.930;13.334;2022-10-28T17:23:08;21.60;62.10
27633;DHT22;15046;50.930;13.334;2022-10-28T17:25:34;21.60;62.00
27633;DHT22;15046;50.930;13.334;2022-10-28T17:28:00;21.60;61.90
27633;DHT22;15046;50.930;13.334;2022-10-28T17:30:26;21.60;61.90
27633;DHT22;15046;50.930;13.334;2022-10-28T17:32:53;21.50;61.80
27633;DHT22;15046;50.930;13.334;2022-10-28T17:35:21;21.50;61.70
27633;DHT22;15046;50.930;13.334;2022-10-28T17:37:47;21.50;61.70
27633;DHT22;15046;50.930;13.334;2022-10-28T17:40:13;21.50;61.80
27633;DHT22;15046;50.930;13.334;2022-10-28T17:42:40;21.40;61.80
27633;DHT22;15046;50.930;13.334;2022-10-28T17:45:06;21.40;61.90
27633;DHT22;15046;50.930;13.334;2022-10-28T17:47:33;21.40;61.90
27633;DHT22;15046;50.930;13.334;2022-10-28T17:49:59;21.30;61.90
27633;DHT22;15046;50.930;13.334;2022-10-28T17:52:26;21.30;62.00
27633;DHT22;15046;50.930;13.334;2022-10-28T17:54:52;21.30;62.10
27633;DHT22;15046;50.930;13.334;2022-10-28T17:57:18;21.20;62.20
27633;DHT22;15046;50.930;13.334;2022-10-28T17:59:44;21.20;62.30
27633;DHT22;15046;50.930;13.334;2022-10-28T18:02:11;21.10;62.20
27633;DHT22;15046;50.930;13.334;2022-10-28T18:04:39;21.10;62.20
27633;DHT22;15046;50.930;13.334;2022-10-28T18:07:05;21.10;62.30
27633;DHT22;15046;50.930;13.334;2022-10-28T18:09:31;21.10;62.50
27633;DHT22;15046;50.930;13.334;2022-10-28T18:11:58;21.00;62.30
27633;DHT22;15046;50.930;13.334;2022-10-28T18:14:29;21.00;62.40
27633;DHT22;15046;50.930;13.334;2022-10-28T18:16:55;21.00;62.40
27633;DHT22;15046;50.930;13.334;2022-10-28T18:19:21;21.00;62.30
27633;DHT22;15046;50.930;13.334;2022-10-28T18:21:47;21.00;62.30